Time;durP1;ratioP1;P1;durP2;ratioP2;P2;SDS_P1;SDS_P2;PMS_P1;PMS_P2;Temp;Humidity;BMP_temperature;BMP_pressure;BME280_temperature;BME280_humidity;BME280_pressure;Samples;Min_cycle;Max_cycle;Signal;HPM_P1;HPM_P2
2023/01/28 06:41:28;;;;;;;;;;;;;;;;;;;;;
2023/01/28 06:46:59;;;;;;;14.48;9.23;;;2.80;99.90;;;;;;5211423;23;20049;-96
2023/01/28 06:49:26;;;;;;;13.85;9.70;;;2.80;99.90;;;;;;4801503;29;20054;-96
2023/01/28 07:52:56;;;;;;;12.77;8.70;;;2.70;99.90;;;;;;4851862;23;20057;-95
2023/01/28 07:55:31;;;;;;;13.13;8.90;;;2.70;99.90;;;;;;4799930;29;20065;-95
2023/01/28 07:58:19;;;;;;;12.35;8.95;;;2.70;99.90;;;;;;4851117;24;20046;-95
2023/01/28 08:00:45;;;;;;;11.43;8.95;;;2.70;99.90;;;;;;4824688;29;20060;-95
2023/01/28 08:03:21;;;;;;;12.23;9.30;;;2.70;99.90;;;;;;4828384;29;20455;-95
2023/01/28 08:05:52;;;;;;;12.70;8.73;;;2.70;99.90;;;;;;4824236;29;20110;-94
2023/01/28 08:08:27;;;;;;;12.35;8.23;;;2.70;99.90;;;;;;4829382;29;20056;-95
2023/01/28 08:11:09;;;;;;;13.30;8.65;;;2.70;99.90;;;;;;4815130;29;20488;-96
2023/01/28 08:24:52;;;;;;;11.32;8.20;;;2.50;99.90;;;;;;5877444;23;20028;-88
2023/01/28 08:27:22;;;;;;;12.68;8.75;;;2.60;99.90;;;;;;4821162;29;20058;-89
2023/01/28 08:36:34;;;;;;;13.23;7.70;;;2.40;99.90;;;;;;5046926;23;20050;-89
2023/01/28 08:39:04;;;;;;;11.75;7.53;;;2.40;99.90;;;;;;4825372;29;20046;-89
2023/01/28 08:41:55;;;;;;;11.73;7.93;;;2.50;99.90;;;;;;4844911;29;20045;-90
2023/01/28 11:24:45;;;;;;;8.32;6.00;;;4.40;99.90;;;;;;4829525;29;20049;-94
2023/01/28 11:27:58;;;;;;;9.55;5.97;;;4.50;99.90;;;;;;4803666;29;20403;-95
2023/01/28 11:46:11;;;;;;;11.35;7.80;;;4.90;99.90;;;;;;4845306;29;20067;-92
2023/01/28 11:49:26;;;;;;;8.13;6.15;;;5.00;99.90;;;;;;4843732;29;20498;-93
2023/01/28 12:23:45;;;;;;;10.18;6.72;;;5.50;99.90;;;;;;5955848;23;20043;31
2023/01/28 12:27:12;;;;;;;12.02;7.22;;;5.50;99.90;;;;;;4823254;29;20054;-92
2023/01/28 12:33:31;;;;;;;10.27;6.40;;;5.60;99.90;;;;;;5108955;23;20061;-95
2023/01/28 12:36:46;;;;;;;9.98;6.50;;;5.60;99.90;;;;;;4863734;23;20061;-92
2023/01/28 12:40:25;;;;;;;13.63;7.60;;;5.60;99.90;;;;;;4817596;29;20077;-92
2023/01/28 12:43:34;;;;;;;19.80;11.52;;;5.70;99.90;;;;;;4828382;29;20351;-92
2023/01/28 12:53:00;;;;;;;21.35;9.80;;;5.60;99.80;;;;;;4843228;29;20518;-93
2023/01/28 12:58:58;;;;;;;15.43;9.65;;;5.60;99.80;;;;;;5154738;23;20188;-89
2023/01/28 13:02:35;;;;;;;15.40;9.30;;;5.70;99.90;;;;;;4803792;23;20220;-89
2023/01/28 13:05:55;;;;;;;15.88;9.20;;;5.70;99.70;;;;;;4848002;29;20077;-89
2023/01/28 13:08:42;;;;;;;14.63;8.88;;;5.70;99.50;;;;;;4847702;29;20075;-88
2023/01/28 13:11:42;;;;;;;13.90;8.77;;;5.70;99.70;;;;;;4856215;23;20508;-89
2023/01/28 13:14:49;;;;;;;13.45;8.32;;;5.70;99.80;;;;;;4817773;24;20054;-88
2023/01/28 13:21:30;;;;;;;12.60;8.25;;;5.70;99.90;;;;;;4995165;24;20069;-88
2023/01/28 13:42:26;;;;;;;10.38;6.97;;;5.80;99.60;;;;;;4879183;23;20046;-88
2023/01/28 13:45:29;;;;;;;11.15;7.65;;;5.80;99.70;;;;;;4712297;30;20057;-87
2023/01/28 13:48:38;;;;;;;11.80;7.63;;;5.80;99.90;;;;;;5125346;27;20121;-87
2023/01/28 14:29:04;;;;;;;11.32;7.25;;;5.90;99.90;;;;;;4840429;24;20054;-89
2023/01/28 14:32:59;;;;;;;;;;;;;;;;;;;;;
2023/01/28 15:04:45;;;;;;;13.77;8.95;;;5.90;99.90;;;;;;5134838;24;20083;-88
2023/01/28 15:07:37;;;;;;;13.80;9.55;;;5.90;99.90;;;;;;4649917;30;20073;-88
2023/01/28 15:10:06;;;;;;;14.60;8.88;;;6.00;99.90;;;;;;4677873;30;20136;-88
2023/01/28 15:12:38;;;;;;;12.35;8.98;;;6.00;99.90;;;;;;4649209;30;20054;-88
2023/01/28 15:15:22;;;;;;;11.07;8.10;;;6.00;99.90;;;;;;4653065;30;20054;-88
2023/01/28 15:17:48;;;;;;;11.88;7.45;;;6.00;99.90;;;;;;4668208;30;20137;-88
2023/01/28 15:20:22;;;;;;;10.93;6.50;;;6.00;99.90;;;;;;4668210;30;20113;-89
2023/01/28 15:22:50;;;;;;;10.27;7.18;;;6.00;99.90;;;;;;4672695;30;20042;-87
2023/01/28 15:25:18;;;;;;;14.05;7.63;;;6.00;99.90;;;;;;4684815;30;20120;-88
2023/01/28 15:27:45;;;;;;;10.50;7.32;;;6.00;99.90;;;;;;4684735;30;20508;-87
2023/01/28 15:30:26;;;;;;;11.60;7.60;;;6.00;99.90;;;;;;4684313;30;20067;-88
2023/01/28 15:33:11;;;;;;;11.73;8.23;;;6.00;99.90;;;;;;4664347;30;20172;-88
2023/01/28 15:35:37;;;;;;;10.38;7.03;;;6.00;99.90;;;;;;4651776;30;20046;-87
2023/01/28 15:38:03;;;;;;;11.73;7.78;;;6.00;99.90;;;;;;4652498;30;20408;-88
2023/01/28 15:40:29;;;;;;;13.55;8.38;;;6.00;99.90;;;;;;4652278;30;20130;-87
2023/01/28 15:42:57;;;;;;;10.77;7.50;;;6.00;99.90;;;;;;4651627;30;20090;-88
2023/01/28 15:45:25;;;;;;;11.55;8.35;;;6.00;99.90;;;;;;4652135;30;20531;-88
2023/01/28 15:48:00;;;;;;;11.23;7.60;;;6.00;99.90;;;;;;4651038;30;20059;-86
2023/01/28 15:50:26;;;;;;;10.65;7.38;;;6.00;99.90;;;;;;4666515;30;20046;-86
2023/01/28 15:52:54;;;;;;;14.55;8.07;;;6.00;99.90;;;;;;4651175;30;20140;-86
2023/01/28 15:55:39;;;;;;;11.13;6.82;;;6.10;99.90;;;;;;4651675;30;20065;-86
2023/01/28 15:58:17;;;;;;;11.50;7.40;;;6.10;99.90;;;;;;4650108;30;20531;-86
2023/01/28 16:00:43;;;;;;;10.40;7.55;;;6.10;99.90;;;;;;4649760;30;20522;-89
2023/01/28 16:03:09;;;;;;;11.32;7.40;;;6.10;99.90;;;;;;4666502;30;20114;-89
2023/01/28 16:05:40;;;;;;;12.05;7.30;;;6.10;99.90;;;;;;4650649;30;20051;-89
2023/01/28 16:08:33;;;;;;;12.85;7.65;;;6.10;99.90;;;;;;4659090;30;20468;-90
2023/01/28 16:10:59;;;;;;;10.32;6.90;;;6.10;99.90;;;;;;4649917;30;20058;-90
2023/01/28 16:13:30;;;;;;;10.27;6.63;;;6.00;99.90;;;;;;4650979;30;20149;-89
2023/01/28 16:16:12;;;;;;;11.38;7.57;;;6.10;99.90;;;;;;4650798;30;20062;-87
2023/01/28 16:18:54;;;;;;;11.65;7.32;;;6.00;99.90;;;;;;4665034;30;20042;-89
2023/01/28 16:21:41;;;;;;;10.63;6.22;;;6.10;99.90;;;;;;4673162;30;20046;-88
2023/01/28 16:24:31;;;;;;;10.27;7.00;;;6.00;99.90;;;;;;4650957;30;20061;-88
2023/01/28 16:27:28;;;;;;;10.30;6.93;;;6.00;99.90;;;;;;4653926;30;20066;-86
2023/01/28 16:29:57;;;;;;;11.63;6.93;;;6.00;99.90;;;;;;4663904;30;20251;-85
2023/01/28 16:32:35;;;;;;;10.68;7.07;;;6.00;99.90;;;;;;4751038;24;20057;-88
2023/01/28 16:35:02;;;;;;;12.52;7.18;;;6.00;99.90;;;;;;4667867;30;20614;-87
2023/01/28 16:37:28;;;;;;;12.73;7.50;;;5.90;99.90;;;;;;4695387;30;20065;-86
2023/01/28 16:39:56;;;;;;;11.88;7.32;;;6.00;99.90;;;;;;4657287;30;20062;-85
2023/01/28 16:42:31;;;;;;;11.02;6.78;;;6.00;99.90;;;;;;4668459;30;20448;-86
2023/01/28 16:44:57;;;;;;;11.40;6.88;;;6.00;99.90;;;;;;4664018;30;20097;-84
2023/01/28 16:47:35;;;;;;;10.77;6.68;;;6.00;99.90;;;;;;4658690;30;20084;-85
2023/01/28 16:50:14;;;;;;;10.90;7.05;;;6.00;99.90;;;;;;4675079;30;20083;-88
2023/01/28 16:52:44;;;;;;;8.93;6.53;;;5.90;99.90;;;;;;4655364;30;20512;-88
2023/01/28 16:55:16;;;;;;;9.68;6.57;;;5.90;99.90;;;;;;4672497;30;20053;-88
2023/01/28 16:57:43;;;;;;;9.68;6.28;;;5.90;99.90;;;;;;4655857;30;20053;-87
2023/01/28 17:00:17;;;;;;;9.95;6.53;;;5.90;99.90;;;;;;4674358;30;20045;-87
2023/01/28 17:02:59;;;;;;;10.10;6.60;;;5.90;99.90;;;;;;4684281;30;20104;-88
2023/01/28 17:05:26;;;;;;;14.25;7.15;;;5.90;99.90;;;;;;4667528;30;20053;-88
2023/01/28 17:07:55;;;;;;;15.52;8.15;;;5.80;99.90;;;;;;4665599;30;20151;-89
2023/01/28 17:10:26;;;;;;;12.70;6.97;;;5.90;99.90;;;;;;4667814;30;20046;-88
2023/01/28 17:12:54;;;;;;;11.38;6.78;;;5.90;99.90;;;;;;4670203;30;20057;-88
2023/01/28 17:15:20;;;;;;;10.18;6.65;;;5.80;99.90;;;;;;4673264;30;20080;-90
2023/01/28 17:17:57;;;;;;;11.77;7.15;;;5.80;99.90;;;;;;4684687;30;20488;-90
2023/01/28 17:20:29;;;;;;;14.55;7.90;;;5.80;99.90;;;;;;4681394;30;20128;-90
2023/01/28 17:23:05;;;;;;;12.70;7.55;;;5.80;99.90;;;;;;4669809;30;20081;-89
2023/01/28 17:25:35;;;;;;;10.82;7.30;;;5.70;99.90;;;;;;4658120;30;20069;-88
2023/01/28 17:28:01;;;;;;;12.13;6.90;;;5.80;99.90;;;;;;4680876;30;20462;-89
2023/01/28 17:30:26;;;;;;;10.13;6.93;;;5.80;99.90;;;;;;4667722;30;20049;-89
2023/01/28 17:32:53;;;;;;;12.77;7.40;;;5.70;99.90;;;;;;4682430;30;20205;-89
2023/01/28 17:35:18;;;;;;;12.73;7.35;;;5.70;99.90;;;;;;4665798;30;20483;-88
2023/01/28 17:37:44;;;;;;;13.93;8.00;;;5.70;99.90;;;;;;4683554;30;20054;-89
2023/01/28 17:40:11;;;;;;;11.60;7.07;;;5.70;99.90;;;;;;4681753;30;20129;-89
2023/01/28 17:42:37;;;;;;;12.25;6.95;;;5.70;99.90;;;;;;4654525;30;20046;-89
2023/01/28 17:45:03;;;;;;;10.25;6.93;;;5.70;99.90;;;;;;4671596;30;20389;-88
2023/01/28 17:47:29;;;;;;;11.88;7.22;;;5.70;99.90;;;;;;4683884;24;20115;-89
2023/01/28 17:49:56;;;;;;;12.27;7.20;;;5.70;99.90;;;;;;4682105;24;20057;-88
2023/01/28 17:52:22;;;;;;;11.32;6.65;;;5.70;99.90;;;;;;4677608;30;20058;-88
2023/01/28 17:54:50;;;;;;;11.38;6.97;;;5.70;99.90;;;;;;4665651;30;20481;-87
2023/01/28 17:57:31;;;;;;;14.00;7.75;;;5.60;99.90;;;;;;4662815;30;20050;-88
2023/01/28 18:00:17;;;;;;;13.50;8.02;;;5.60;99.90;;;;;;4659328;30;20054;-88
2023/01/28 18:02:49;;;;;;;13.30;8.30;;;5.60;99.90;;;;;;4678461;25;20103;-87
2023/01/28 18:05:19;;;;;;;13.23;7.15;;;5.60;99.90;;;;;;4713121;25;20058;-88
2023/01/28 18:07:49;;;;;;;13.07;7.72;;;5.50;99.90;;;;;;4690454;30;20388;-88
2023/01/28 18:10:21;;;;;;;13.77;8.00;;;5.60;99.90;;;;;;4708992;25;20060;-88
2023/01/28 18:12:58;;;;;;;14.50;7.90;;;5.50;99.90;;;;;;4699604;30;20058;-88
2023/01/28 18:15:24;;;;;;;13.90;7.10;;;5.50;99.90;;;;;;4697748;30;20068;-88
2023/01/28 18:17:51;;;;;;;16.85;8.02;;;5.50;99.90;;;;;;4683320;25;20521;-88
2023/01/28 18:20:29;;;;;;;12.95;7.45;;;5.50;99.90;;;;;;4685247;25;20145;-88
2023/01/28 18:23:07;;;;;;;15.55;7.70;;;5.50;99.90;;;;;;4635320;30;20057;-89
2023/01/28 18:25:33;;;;;;;12.20;7.43;;;5.40;99.90;;;;;;4634911;30;20093;-89
2023/01/28 18:27:59;;;;;;;12.60;7.50;;;5.40;99.90;;;;;;4656141;30;20490;-90
2023/01/28 18:30:24;;;;;;;18.15;9.20;;;5.40;99.90;;;;;;4634461;30;20409;-89
2023/01/28 18:32:59;;;;;;;11.50;7.18;;;5.40;99.90;;;;;;4639447;30;20050;-90
2023/01/28 18:35:40;;;;;;;15.55;7.53;;;5.30;99.90;;;;;;4629697;31;20047;-89
2023/01/28 18:38:17;;;;;;;13.98;8.98;;;5.40;99.90;;;;;;4630817;30;20051;-90
2023/01/28 18:40:46;;;;;;;15.10;8.40;;;5.30;99.90;;;;;;4651151;30;20101;-89
2023/01/28 18:43:34;;;;;;;18.00;9.63;;;5.30;99.90;;;;;;4649599;25;20049;-90
2023/01/28 18:49:06;;;;;;;26.90;12.57;;;5.30;99.90;;;;;;4697505;25;20924;-90
2023/01/28 18:51:32;;;;;;;20.15;10.90;;;5.30;99.90;;;;;;4671583;24;20055;-90
2023/01/28 18:54:04;;;;;;;15.60;9.32;;;5.30;99.90;;;;;;4643453;30;20051;-90
2023/01/28 18:59:12;;;;;;;24.17;11.45;;;5.20;99.90;;;;;;4680491;25;20459;-91
2023/01/28 19:01:41;;;;;;;24.20;12.45;;;5.20;99.90;;;;;;4641304;30;20521;-91
2023/01/28 19:04:07;;;;;;;28.08;14.32;;;5.10;99.90;;;;;;4649603;30;20141;-91
2023/01/28 19:06:33;;;;;;;23.08;12.27;;;5.20;99.90;;;;;;4658087;30;20073;-91
2023/01/28 19:09:06;;;;;;;18.30;9.93;;;5.20;99.90;;;;;;4660178;30;20400;-90
2023/01/28 19:11:33;;;;;;;19.80;10.63;;;5.20;99.90;;;;;;4646143;30;20169;-90
2023/01/28 19:14:02;;;;;;;18.67;10.75;;;5.20;99.90;;;;;;4647554;30;20061;-90
2023/01/28 19:16:33;;;;;;;23.83;12.43;;;5.20;99.90;;;;;;4665603;30;20046;-89
2023/01/28 19:19:00;;;;;;;20.23;10.95;;;5.20;99.90;;;;;;4660719;30;20050;-88
2023/01/28 19:21:32;;;;;;;23.63;12.82;;;5.20;99.90;;;;;;4661214;30;20513;-90
2023/01/28 19:24:08;;;;;;;23.88;12.05;;;5.20;99.90;;;;;;4649193;30;20054;-89
2023/01/28 19:26:37;;;;;;;19.83;11.00;;;5.20;99.90;;;;;;4666461;30;20066;-89
2023/01/28 19:29:15;;;;;;;26.70;13.77;;;5.20;99.90;;;;;;4651638;30;20065;-89
2023/01/28 19:31:47;;;;;;;22.45;12.00;;;5.20;99.90;;;;;;4651668;30;20149;-90
2023/01/28 19:34:21;;;;;;;25.40;13.70;;;5.10;99.90;;;;;;4638004;30;20544;-89
2023/01/28 19:36:53;;;;;;;22.17;11.50;;;5.10;99.90;;;;;;4661016;30;20042;-90
2023/01/28 19:39:22;;;;;;;23.20;11.63;;;5.10;99.90;;;;;;4637723;30;20055;-89
2023/01/28 19:41:48;;;;;;;17.10;10.35;;;5.10;99.90;;;;;;4660315;30;20042;-89
2023/01/28 19:44:22;;;;;;;24.05;11.05;;;5.10;99.90;;;;;;4668532;30;20057;-89
2023/01/28 19:47:01;;;;;;;18.40;10.70;;;5.10;99.90;;;;;;4666829;30;20047;-89
2023/01/28 19:49:39;;;;;;;17.08;9.80;;;5.10;99.90;;;;;;4654747;30;20133;-89
2023/01/28 19:52:09;;;;;;;17.65;10.18;;;5.00;99.90;;;;;;4650782;30;20121;-89
2023/01/28 19:54:38;;;;;;;19.02;10.70;;;5.00;99.90;;;;;;4640240;30;20055;-89
2023/01/28 19:57:08;;;;;;;20.83;11.55;;;5.00;99.90;;;;;;4665898;30;20074;-89
2023/01/28 19:59:43;;;;;;;19.20;10.63;;;5.00;99.90;;;;;;4655068;30;20053;-89
2023/01/28 20:02:13;;;;;;;16.63;9.40;;;5.00;99.90;;;;;;4674644;30;20050;-89
2023/01/28 20:04:47;;;;;;;18.65;9.30;;;5.00;99.90;;;;;;4666449;30;20103;-90
2023/01/28 20:07:19;;;;;;;14.98;8.85;;;5.00;99.90;;;;;;4654648;30;20497;-89
2023/01/28 20:09:50;;;;;;;15.77;8.70;;;4.90;99.90;;;;;;4650861;30;20054;-88
2023/01/28 20:12:25;;;;;;;17.67;9.30;;;5.00;99.90;;;;;;4648395;30;20042;-90
2023/01/28 20:14:57;;;;;;;16.55;9.20;;;5.00;99.90;;;;;;4651523;30;20050;-90
2023/01/28 20:17:31;;;;;;;16.90;9.32;;;4.90;99.90;;;;;;4639860;30;20043;-90
2023/01/28 20:20:04;;;;;;;16.77;9.93;;;4.90;99.90;;;;;;4666846;30;20096;-89
2023/01/28 20:22:40;;;;;;;14.13;9.13;;;4.90;99.90;;;;;;4655929;30;20117;-90
2023/01/28 20:25:20;;;;;;;18.13;8.98;;;5.00;99.90;;;;;;4647814;30;20055;-89
2023/01/28 20:27:49;;;;;;;13.88;8.73;;;4.90;99.90;;;;;;4650393;30;20560;-90
2023/01/28 20:30:25;;;;;;;14.43;8.20;;;5.00;99.90;;;;;;4646511;30;20093;-89
2023/01/28 20:32:51;;;;;;;14.73;6.47;;;4.90;99.90;;;;;;4650128;25;20501;-88
2023/01/28 20:35:19;;;;;;;13.07;7.50;;;4.90;99.90;;;;;;4667034;30;20061;-89
2023/01/28 20:37:45;;;;;;;14.18;7.65;;;4.90;99.90;;;;;;4672029;30;20054;-88
2023/01/28 20:40:11;;;;;;;10.13;6.00;;;4.90;99.90;;;;;;4674743;30;20551;-86
2023/01/28 20:42:37;;;;;;;14.63;6.13;;;4.90;99.90;;;;;;4667883;30;20053;-87
2023/01/28 20:45:03;;;;;;;14.20;7.07;;;4.90;99.90;;;;;;4663838;30;20102;-87
2023/01/28 20:47:29;;;;;;;12.52;6.82;;;4.90;99.90;;;;;;4662869;30;20429;-87
2023/01/28 20:49:54;;;;;;;13.10;7.20;;;4.90;99.90;;;;;;4663484;30;20097;-87
2023/01/28 20:52:20;;;;;;;15.07;8.50;;;4.90;99.90;;;;;;4664560;30;20074;-88
2023/01/28 20:54:47;;;;;;;16.00;8.30;;;4.90;99.90;;;;;;4666025;30;20492;-88
2023/01/28 20:57:16;;;;;;;13.43;7.63;;;4.80;99.90;;;;;;4669100;30;20042;-88
2023/01/28 20:59:41;;;;;;;15.65;7.15;;;4.80;99.90;;;;;;4665357;30;20046;-88
2023/01/28 21:02:09;;;;;;;13.02;7.03;;;4.90;99.90;;;;;;4665208;30;20151;-88
2023/01/28 21:04:34;;;;;;;13.23;6.63;;;4.90;99.90;;;;;;4666595;30;20050;-88
2023/01/28 21:07:00;;;;;;;13.20;6.97;;;4.90;99.90;;;;;;4664686;30;20054;-88
2023/01/28 21:09:28;;;;;;;13.35;7.75;;;4.90;99.90;;;;;;4666944;30;20053;-88
2023/01/28 21:11:57;;;;;;;13.65;6.82;;;4.80;99.90;;;;;;4667440;30;20068;-89
2023/01/28 21:14:23;;;;;;;12.55;6.97;;;4.90;99.90;;;;;;4665365;30;20062;-89
2023/01/28 21:16:51;;;;;;;12.18;5.78;;;4.80;99.90;;;;;;4665738;30;20046;-88
2023/01/28 21:19:23;;;;;;;11.23;6.72;;;4.80;99.90;;;;;;4667218;30;20112;-87
2023/01/28 21:21:50;;;;;;;10.25;6.13;;;4.80;99.90;;;;;;4672232;30;20382;-88
2023/01/28 21:24:16;;;;;;;12.20;6.18;;;4.80;99.90;;;;;;4664378;30;20054;-88
2023/01/28 21:26:42;;;;;;;11.27;6.85;;;4.80;99.90;;;;;;4665402;30;20421;-88
2023/01/28 21:29:07;;;;;;;10.80;6.07;;;4.80;99.90;;;;;;4683556;24;20066;-86
2023/01/28 21:31:33;;;;;;;10.23;5.53;;;4.80;99.90;;;;;;4655556;30;20430;-88
2023/01/28 21:34:08;;;;;;;9.10;5.68;;;4.80;99.90;;;;;;4650105;30;20113;-89
2023/01/28 21:36:40;;;;;;;12.05;7.22;;;4.80;99.90;;;;;;4650829;30;20563;-89
2023/01/28 21:39:09;;;;;;;12.20;7.05;;;4.80;99.90;;;;;;4652035;30;20075;-89
2023/01/28 21:41:44;;;;;;;13.02;6.93;;;4.80;99.90;;;;;;4654460;30;20052;-89
2023/01/28 21:44:15;;;;;;;9.98;6.20;;;4.80;99.90;;;;;;4664472;30;20051;-89
2023/01/28 21:46:53;;;;;;;11.88;7.10;;;4.80;99.90;;;;;;4673959;30;20125;-89
2023/01/28 21:49:31;;;;;;;13.00;7.28;;;4.80;99.90;;;;;;4655155;30;20054;-88
2023/01/28 21:52:00;;;;;;;11.23;6.65;;;4.80;99.90;;;;;;4649938;30;20165;-88
2023/01/28 21:54:34;;;;;;;10.57;6.88;;;4.80;99.90;;;;;;4655993;30;20053;-88
2023/01/28 21:59:26;;;;;;;14.52;6.72;;;4.80;99.90;;;;;;4676922;30;20391;-88
2023/01/28 22:03:51;;;;;;;11.43;6.10;;;4.80;99.90;;;;;;4701785;25;20120;-89
2023/01/28 22:06:32;;;;;;;12.95;6.22;;;4.80;99.90;;;;;;4699300;30;20120;-89
2023/01/28 22:09:04;;;;;;;10.23;5.72;;;4.80;99.90;;;;;;4701269;30;20049;-89
2023/01/28 22:11:32;;;;;;;11.70;5.80;;;4.80;99.90;;;;;;4686615;30;20053;-89
2023/01/28 22:14:03;;;;;;;11.38;6.03;;;4.80;99.90;;;;;;4702726;30;20115;-88
2023/01/28 22:16:38;;;;;;;10.10;6.32;;;4.80;99.90;;;;;;4683438;30;20053;-88
2023/01/28 22:19:11;;;;;;;9.65;6.03;;;4.80;99.90;;;;;;4683481;30;20132;-88
2023/01/28 22:21:41;;;;;;;10.67;6.70;;;4.80;99.90;;;;;;4687464;30;20084;-88
2023/01/28 22:24:15;;;;;;;9.98;5.78;;;4.80;99.90;;;;;;4686221;30;20057;-88
2023/01/28 22:26:41;;;;;;;10.02;6.07;;;4.80;99.90;;;;;;4702787;30;20130;-88
2023/01/28 22:29:18;;;;;;;9.65;6.00;;;4.80;99.90;;;;;;4702539;30;20442;-88
2023/01/28 22:37:51;;;;;;;10.53;5.97;;;4.70;99.90;;;;;;4690235;24;20508;-88
2023/01/28 22:40:26;;;;;;;8.60;5.53;;;4.70;99.90;;;;;;4685057;30;20293;-88
2023/01/28 22:42:55;;;;;;;9.32;5.85;;;4.70;99.90;;;;;;4670172;30;20057;-88
2023/01/28 22:45:24;;;;;;;9.57;5.90;;;4.70;99.90;;;;;;4692130;24;20145;-89
2023/01/28 22:47:50;;;;;;;11.02;5.93;;;4.70;99.90;;;;;;4660470;24;20489;-88
2023/01/28 22:50:16;;;;;;;9.68;5.80;;;4.60;99.90;;;;;;4652410;30;20094;-88
2023/01/28 22:52:42;;;;;;;8.95;5.82;;;4.60;99.90;;;;;;4674344;30;20053;-89
2023/01/28 22:55:08;;;;;;;11.40;6.38;;;4.70;99.90;;;;;;4667073;30;20060;-88
2023/01/28 22:57:33;;;;;;;10.77;6.25;;;4.60;99.90;;;;;;4668243;30;20474;-89
2023/01/28 22:59:59;;;;;;;14.65;6.65;;;4.60;99.90;;;;;;4666162;30;20132;-88
2023/01/28 23:02:30;;;;;;;11.50;7.05;;;4.60;99.90;;;;;;4693186;25;20058;-88
2023/01/28 23:05:06;;;;;;;11.98;6.78;;;4.60;99.90;;;;;;4660786;25;20047;-89
2023/01/28 23:07:35;;;;;;;11.55;7.15;;;4.60;99.90;;;;;;4648317;30;20267;-89
2023/01/28 23:10:13;;;;;;;12.27;6.90;;;4.70;99.90;;;;;;4636642;30;20056;-89
2023/01/28 23:12:46;;;;;;;11.73;7.18;;;4.60;99.90;;;;;;4632309;31;20058;-89
2023/01/28 23:24:18;;;;;;;10.90;7.10;;;4.60;99.90;;;;;;4646540;30;20468;-89
2023/01/28 23:26:45;;;;;;;13.52;8.02;;;4.60;99.90;;;;;;4642389;30;20055;-88
2023/01/28 23:29:10;;;;;;;13.13;7.60;;;4.50;99.90;;;;;;4650327;30;20054;-88
2023/01/28 23:31:53;;;;;;;13.30;8.85;;;4.60;99.90;;;;;;4649370;30;20390;-88
2023/01/28 23:34:20;;;;;;;14.00;9.10;;;4.50;99.90;;;;;;4635007;30;20515;-89
2023/01/28 23:36:46;;;;;;;12.75;8.68;;;4.50;99.90;;;;;;4658487;25;20465;-89
2023/01/28 23:39:11;;;;;;;11.77;7.75;;;4.50;99.90;;;;;;4701399;30;20060;-89
2023/01/28 23:41:37;;;;;;;11.05;7.43;;;4.50;99.90;;;;;;4702577;30;20115;-89
2023/01/28 23:44:04;;;;;;;19.38;10.63;;;4.50;99.90;;;;;;4702817;24;20538;-89
2023/01/28 23:46:32;;;;;;;17.83;10.30;;;4.50;99.90;;;;;;4671748;30;20049;-88
2023/01/28 23:49:01;;;;;;;12.48;8.35;;;4.50;99.90;;;;;;4681487;30;20456;-89
2023/01/28 23:51:30;;;;;;;14.35;8.93;;;4.50;99.90;;;;;;4673901;30;20047;-89
2023/01/28 23:54:05;;;;;;;15.20;10.20;;;4.50;99.90;;;;;;4667367;30;20447;-89
2023/01/28 23:56:37;;;;;;;19.67;10.68;;;4.50;99.90;;;;;;4682342;30;20500;-89
2023/01/28 23:59:12;;;;;;;13.13;9.60;;;4.60;99.90;;;;;;4674536;30;20133;-89
